AEE119 LGAV-LGIO
Flight info
| Callsign | AEE119 |
|---|---|
| Flight time | 0h 42m |
| Altitude | 24000 |
| Route | KOR L53 GARTA L611 IBTIN |
| Aircraft | A320/M-SDE3FGHIRWY/LB1 |
Departure
| Time | 2026-04-17 10:25 |
|---|---|
| Airport | Athens Eleftherios Venizelos International Airport (LGAV) |
Arrival
| Time | 2026-04-17 11:07 |
|---|---|
| Airport | Ioannina King Pyrrhus National Airport (LGIO) |
| Time | Latitude | Longitude | Altitude | Speed | Heading |
|---|---|---|---|---|---|
| 2026-04-17 10:13 | 37.94120 | 23.95130 | 302 ft | 0 kts | 39° |
| 2026-04-17 10:15 | 37.94108 | 23.95118 | 302 ft | 4 kts | 40° |
| 2026-04-17 10:16 | 37.94088 | 23.95095 | 301 ft | 4 kts | 47° |
| 2026-04-17 10:16 | 37.94072 | 23.95069 | 301 ft | 4 kts | 70° |
| 2026-04-17 10:16 | 37.94071 | 23.95044 | 301 ft | 1 kts | 126° |
| 2026-04-17 10:16 | 37.94071 | 23.95043 | 301 ft | 0 kts | 126° |
| 2026-04-17 10:18 | 37.94063 | 23.95058 | 304 ft | 5 kts | 126° |
| 2026-04-17 10:18 | 37.94029 | 23.95115 | 301 ft | 10 kts | 126° |
| 2026-04-17 10:18 | 37.93978 | 23.95203 | 301 ft | 14 kts | 126° |
| 2026-04-17 10:19 | 37.93916 | 23.95309 | 300 ft | 15 kts | 132° |
| 2026-04-17 10:19 | 37.93817 | 23.95298 | 300 ft | 17 kts | 216° |
| 2026-04-17 10:19 | 37.93717 | 23.95201 | 301 ft | 19 kts | 217° |
| 2026-04-17 10:19 | 37.93601 | 23.95092 | 301 ft | 22 kts | 217° |
| 2026-04-17 10:20 | 37.93474 | 23.94971 | 302 ft | 24 kts | 217° |
| 2026-04-17 10:20 | 37.93331 | 23.94833 | 300 ft | 27 kts | 217° |
| 2026-04-17 10:20 | 37.93186 | 23.94696 | 303 ft | 27 kts | 216° |
| 2026-04-17 10:20 | 37.93046 | 23.94564 | 302 ft | 20 kts | 217° |
| 2026-04-17 10:21 | 37.92927 | 23.94449 | 302 ft | 23 kts | 217° |
| 2026-04-17 10:21 | 37.92799 | 23.94330 | 303 ft | 24 kts | 217° |
| 2026-04-17 10:21 | 37.92670 | 23.94207 | 303 ft | 23 kts | 217° |
| 2026-04-17 10:21 | 37.92558 | 23.94100 | 305 ft | 15 kts | 217° |
| 2026-04-17 10:22 | 37.92481 | 23.94082 | 303 ft | 13 kts | 142° |
| 2026-04-17 10:22 | 37.92433 | 23.94158 | 303 ft | 9 kts | 126° |
| 2026-04-17 10:22 | 37.92411 | 23.94220 | 305 ft | 7 kts | 103° |
| 2026-04-17 10:22 | 37.92410 | 23.94264 | 306 ft | 0 kts | 85° |
| 2026-04-17 10:23 | 37.92412 | 23.94298 | 307 ft | 10 kts | 85° |
| 2026-04-17 10:23 | 37.92434 | 23.94403 | 309 ft | 12 kts | 40° |
| 2026-04-17 10:23 | 37.92460 | 23.94428 | 309 ft | 1 kts | 37° |
| 2026-04-17 10:23 | 37.92462 | 23.94429 | 309 ft | 0 kts | 37° |
| 2026-04-17 10:24 | 37.92475 | 23.94442 | 310 ft | 13 kts | 37° |
| 2026-04-17 10:24 | 37.92754 | 23.94707 | 303 ft | 86 kts | 37° |
| 2026-04-17 10:25 | 37.93389 | 23.95306 | 291 ft | 138 kts | 37° |
| 2026-04-17 10:25 | 37.94167 | 23.96099 | 812 ft | 144 kts | 37° |
| 2026-04-17 10:25 | 37.94972 | 23.96890 | 1391 ft | 149 kts | 34° |
| 2026-04-17 10:25 | 37.95815 | 23.97685 | 1937 ft | 154 kts | 31° |
| 2026-04-17 10:26 | 37.96701 | 23.98516 | 2455 ft | 164 kts | 31° |
| 2026-04-17 10:26 | 37.97651 | 23.99411 | 2899 ft | 179 kts | 32° |
| 2026-04-17 10:26 | 37.98716 | 24.00417 | 3240 ft | 203 kts | 33° |
| 2026-04-17 10:26 | 37.99889 | 24.01532 | 3840 ft | 219 kts | 34° |
| 2026-04-17 10:27 | 38.01121 | 24.02713 | 4787 ft | 224 kts | 36° |
| 2026-04-17 10:27 | 38.02374 | 24.03921 | 5723 ft | 228 kts | 36° |
| 2026-04-17 10:27 | 38.03657 | 24.05159 | 6604 ft | 235 kts | 37° |
| 2026-04-17 10:27 | 38.04978 | 24.06436 | 7422 ft | 242 kts | 38° |
| 2026-04-17 10:28 | 38.06325 | 24.07738 | 8323 ft | 246 kts | 39° |
| 2026-04-17 10:28 | 38.07690 | 24.09057 | 9241 ft | 250 kts | 40° |
| 2026-04-17 10:28 | 38.08907 | 24.10705 | 9738 ft | 266 kts | 63° |
| 2026-04-17 10:28 | 38.09433 | 24.12969 | 10397 ft | 272 kts | 87° |
| 2026-04-17 10:29 | 38.09146 | 24.15339 | 11233 ft | 276 kts | 109° |
| 2026-04-17 10:29 | 38.08101 | 24.17402 | 11796 ft | 297 kts | 132° |
| 2026-04-17 10:29 | 38.06219 | 24.18760 | 12024 ft | 331 kts | 162° |
| 2026-04-17 10:29 | 38.03849 | 24.18804 | 12449 ft | 357 kts | 189° |
| 2026-04-17 10:30 | 38.01584 | 24.17397 | 13108 ft | 373 kts | 216° |
| 2026-04-17 10:30 | 37.99887 | 24.14850 | 13695 ft | 385 kts | 239° |
| 2026-04-17 10:30 | 37.98772 | 24.11752 | 14340 ft | 388 kts | 251° |
| 2026-04-17 10:30 | 37.97959 | 24.08492 | 15116 ft | 387 kts | 255° |
| 2026-04-17 10:31 | 37.97197 | 24.05185 | 15705 ft | 392 kts | 253° |
| 2026-04-17 10:31 | 37.96364 | 24.01928 | 16377 ft | 395 kts | 251° |
| 2026-04-17 10:31 | 37.95396 | 23.98661 | 17088 ft | 397 kts | 249° |
| 2026-04-17 10:31 | 37.94321 | 23.95431 | 17789 ft | 399 kts | 246° |
| 2026-04-17 10:32 | 37.93167 | 23.92206 | 18361 ft | 404 kts | 245° |
| 2026-04-17 10:32 | 37.91972 | 23.88969 | 18896 ft | 409 kts | 245° |
| 2026-04-17 10:32 | 37.90763 | 23.85701 | 19499 ft | 411 kts | 245° |
| 2026-04-17 10:32 | 37.89714 | 23.82335 | 20138 ft | 412 kts | 255° |
| 2026-04-17 10:33 | 37.89158 | 23.78774 | 20691 ft | 413 kts | 266° |
| 2026-04-17 10:33 | 37.89125 | 23.75134 | 21199 ft | 415 kts | 276° |
| 2026-04-17 10:33 | 37.89332 | 23.71536 | 21751 ft | 416 kts | 276° |
| 2026-04-17 10:33 | 37.89529 | 23.67872 | 22341 ft | 417 kts | 275° |
| 2026-04-17 10:34 | 37.89716 | 23.64201 | 22907 ft | 420 kts | 276° |
| 2026-04-17 10:34 | 37.89901 | 23.60500 | 23428 ft | 423 kts | 276° |
| 2026-04-17 10:34 | 37.90084 | 23.56766 | 23769 ft | 426 kts | 276° |
| 2026-04-17 10:34 | 37.90264 | 23.53033 | 23864 ft | 425 kts | 276° |
| 2026-04-17 10:35 | 37.90441 | 23.49304 | 23890 ft | 423 kts | 275° |
| 2026-04-17 10:35 | 37.90621 | 23.45586 | 23892 ft | 423 kts | 275° |
| 2026-04-17 10:35 | 37.90799 | 23.41866 | 23893 ft | 423 kts | 275° |
| 2026-04-17 10:35 | 37.90977 | 23.38183 | 23894 ft | 426 kts | 275° |
| 2026-04-17 10:36 | 37.91158 | 23.34447 | 23901 ft | 425 kts | 275° |
| 2026-04-17 10:36 | 37.91338 | 23.30721 | 23902 ft | 422 kts | 275° |
| 2026-04-17 10:36 | 37.91514 | 23.27011 | 23894 ft | 423 kts | 275° |
| 2026-04-17 10:36 | 37.91687 | 23.23289 | 23904 ft | 424 kts | 275° |
| 2026-04-17 10:37 | 37.91861 | 23.19555 | 23908 ft | 425 kts | 275° |
| 2026-04-17 10:37 | 37.92035 | 23.15816 | 23913 ft | 425 kts | 275° |
| 2026-04-17 10:37 | 37.92208 | 23.12078 | 23919 ft | 425 kts | 274° |
| 2026-04-17 10:37 | 37.92376 | 23.08396 | 23919 ft | 424 kts | 274° |
| 2026-04-17 10:38 | 37.92544 | 23.04675 | 23938 ft | 422 kts | 274° |
| 2026-04-17 10:38 | 37.92710 | 23.00965 | 23940 ft | 422 kts | 274° |
| 2026-04-17 10:38 | 37.92982 | 22.97272 | 23930 ft | 421 kts | 282° |
| 2026-04-17 10:38 | 37.93719 | 22.93700 | 23919 ft | 420 kts | 291° |
| 2026-04-17 10:39 | 37.94927 | 22.90340 | 23916 ft | 418 kts | 301° |
| 2026-04-17 10:39 | 37.96519 | 22.87282 | 23915 ft | 416 kts | 306° |
| 2026-04-17 10:39 | 37.98179 | 22.84279 | 23925 ft | 416 kts | 306° |
| 2026-04-17 10:39 | 37.99835 | 22.81278 | 23924 ft | 415 kts | 306° |
| 2026-04-17 10:40 | 38.01487 | 22.78277 | 23936 ft | 415 kts | 306° |
| 2026-04-17 10:40 | 38.03113 | 22.75315 | 23933 ft | 415 kts | 306° |
| 2026-04-17 10:40 | 38.04760 | 22.72309 | 23940 ft | 415 kts | 306° |
| 2026-04-17 10:40 | 38.06405 | 22.69304 | 23937 ft | 414 kts | 306° |
| 2026-04-17 10:41 | 38.08049 | 22.66299 | 23939 ft | 414 kts | 306° |
| 2026-04-17 10:41 | 38.09693 | 22.63292 | 23932 ft | 415 kts | 306° |
| 2026-04-17 10:41 | 38.11337 | 22.60292 | 23939 ft | 415 kts | 306° |
| 2026-04-17 10:41 | 38.12987 | 22.57279 | 23937 ft | 415 kts | 306° |
| 2026-04-17 10:42 | 38.14628 | 22.54275 | 23938 ft | 415 kts | 306° |
| 2026-04-17 10:42 | 38.16251 | 22.51302 | 23945 ft | 415 kts | 306° |
| 2026-04-17 10:42 | 38.17896 | 22.48287 | 23943 ft | 415 kts | 306° |
| 2026-04-17 10:42 | 38.19539 | 22.45270 | 23936 ft | 415 kts | 306° |
| 2026-04-17 10:43 | 38.21181 | 22.42251 | 23934 ft | 415 kts | 306° |
| 2026-04-17 10:43 | 38.22822 | 22.39230 | 23935 ft | 415 kts | 306° |
| 2026-04-17 10:43 | 38.24462 | 22.36210 | 23943 ft | 415 kts | 305° |
| 2026-04-17 10:43 | 38.26099 | 22.33190 | 23955 ft | 415 kts | 305° |
| 2026-04-17 10:44 | 38.27737 | 22.30171 | 23954 ft | 414 kts | 305° |
| 2026-04-17 10:44 | 38.29352 | 22.27190 | 23952 ft | 414 kts | 306° |
| 2026-04-17 10:44 | 38.30985 | 22.24178 | 23948 ft | 414 kts | 305° |
| 2026-04-17 10:44 | 38.32615 | 22.21163 | 23955 ft | 413 kts | 305° |
| 2026-04-17 10:45 | 38.34241 | 22.18155 | 23958 ft | 412 kts | 305° |
| 2026-04-17 10:45 | 38.35865 | 22.15151 | 23958 ft | 411 kts | 305° |
| 2026-04-17 10:45 | 38.37485 | 22.12148 | 23955 ft | 411 kts | 305° |
| 2026-04-17 10:45 | 38.39103 | 22.09148 | 23955 ft | 411 kts | 305° |
| 2026-04-17 10:46 | 38.40720 | 22.06149 | 23949 ft | 410 kts | 305° |
| 2026-04-17 10:46 | 38.42314 | 22.03189 | 23948 ft | 410 kts | 305° |
| 2026-04-17 10:46 | 38.43925 | 22.00188 | 23949 ft | 410 kts | 304° |
| 2026-04-17 10:46 | 38.45533 | 21.97183 | 23949 ft | 410 kts | 304° |
| 2026-04-17 10:47 | 38.47139 | 21.94177 | 23950 ft | 410 kts | 305° |
| 2026-04-17 10:47 | 38.48743 | 21.91171 | 23941 ft | 410 kts | 305° |
| 2026-04-17 10:47 | 38.50348 | 21.88166 | 23942 ft | 410 kts | 304° |
| 2026-04-17 10:47 | 38.51952 | 21.85160 | 23944 ft | 410 kts | 305° |
| 2026-04-17 10:48 | 38.53556 | 21.82155 | 23946 ft | 409 kts | 305° |
| 2026-04-17 10:48 | 38.55162 | 21.79152 | 23944 ft | 409 kts | 305° |
| 2026-04-17 10:48 | 38.56762 | 21.76156 | 23941 ft | 409 kts | 305° |
| 2026-04-17 10:48 | 38.58342 | 21.73192 | 23944 ft | 409 kts | 305° |
| 2026-04-17 10:49 | 38.59939 | 21.70187 | 23948 ft | 409 kts | 304° |
| 2026-04-17 10:49 | 38.61534 | 21.67182 | 23947 ft | 408 kts | 305° |
| 2026-04-17 10:49 | 38.63130 | 21.64180 | 23948 ft | 408 kts | 305° |
| 2026-04-17 10:49 | 38.64724 | 21.61181 | 23948 ft | 408 kts | 305° |
| 2026-04-17 10:50 | 38.66315 | 21.58180 | 23945 ft | 407 kts | 305° |
| 2026-04-17 10:50 | 38.67903 | 21.55177 | 23945 ft | 407 kts | 305° |
| 2026-04-17 10:50 | 38.69470 | 21.52213 | 23936 ft | 407 kts | 304° |
| 2026-04-17 10:50 | 38.71039 | 21.49244 | 23733 ft | 397 kts | 305° |
| 2026-04-17 10:51 | 38.72570 | 21.46344 | 23497 ft | 390 kts | 305° |
| 2026-04-17 10:51 | 38.74081 | 21.43482 | 23223 ft | 386 kts | 305° |
| 2026-04-17 10:51 | 38.75584 | 21.40638 | 22955 ft | 384 kts | 305° |
| 2026-04-17 10:51 | 38.77078 | 21.37804 | 22673 ft | 383 kts | 304° |
| 2026-04-17 10:52 | 38.78569 | 21.34974 | 22418 ft | 383 kts | 304° |
| 2026-04-17 10:52 | 38.80048 | 21.32155 | 22153 ft | 381 kts | 304° |
| 2026-04-17 10:52 | 38.81525 | 21.29337 | 21892 ft | 380 kts | 304° |
| 2026-04-17 10:52 | 38.82976 | 21.26564 | 21629 ft | 378 kts | 305° |
| 2026-04-17 10:53 | 38.84441 | 21.23769 | 21373 ft | 377 kts | 305° |
| 2026-04-17 10:53 | 38.85902 | 21.20982 | 21121 ft | 376 kts | 305° |
| 2026-04-17 10:53 | 38.87358 | 21.18204 | 20866 ft | 374 kts | 305° |
| 2026-04-17 10:53 | 38.88807 | 21.15433 | 20616 ft | 374 kts | 304° |
| 2026-04-17 10:54 | 38.90249 | 21.12675 | 20294 ft | 369 kts | 304° |
| 2026-04-17 10:54 | 38.91673 | 21.09950 | 19823 ft | 366 kts | 304° |
| 2026-04-17 10:54 | 38.93088 | 21.07242 | 19334 ft | 364 kts | 304° |
| 2026-04-17 10:54 | 38.94476 | 21.04581 | 18846 ft | 363 kts | 304° |
| 2026-04-17 10:55 | 38.95878 | 21.01892 | 18347 ft | 362 kts | 305° |
| 2026-04-17 10:55 | 38.97495 | 20.99437 | 17811 ft | 359 kts | 318° |
| 2026-04-17 10:55 | 38.99489 | 20.97548 | 17308 ft | 356 kts | 331° |
| 2026-04-17 10:55 | 39.01751 | 20.96297 | 16813 ft | 352 kts | 344° |
| 2026-04-17 10:56 | 39.04138 | 20.95684 | 16328 ft | 348 kts | 352° |
| 2026-04-17 10:56 | 39.06519 | 20.95207 | 15842 ft | 346 kts | 352° |
| 2026-04-17 10:56 | 39.08887 | 20.94729 | 15353 ft | 343 kts | 351° |
| 2026-04-17 10:56 | 39.11210 | 20.94256 | 14877 ft | 341 kts | 351° |
| 2026-04-17 10:57 | 39.13550 | 20.93775 | 14400 ft | 340 kts | 351° |
| 2026-04-17 10:57 | 39.15878 | 20.93297 | 13922 ft | 338 kts | 351° |
| 2026-04-17 10:57 | 39.18196 | 20.92821 | 13403 ft | 336 kts | 351° |
| 2026-04-17 10:57 | 39.20497 | 20.92346 | 12922 ft | 334 kts | 351° |
| 2026-04-17 10:58 | 39.22779 | 20.91876 | 12457 ft | 330 kts | 352° |
| 2026-04-17 10:58 | 39.25042 | 20.91413 | 11985 ft | 328 kts | 352° |
| 2026-04-17 10:58 | 39.27290 | 20.90952 | 11521 ft | 326 kts | 352° |
| 2026-04-17 10:58 | 39.29496 | 20.90497 | 11065 ft | 325 kts | 352° |
| 2026-04-17 10:59 | 39.31724 | 20.90036 | 10588 ft | 324 kts | 352° |
| 2026-04-17 10:59 | 39.33939 | 20.89576 | 10208 ft | 320 kts | 352° |
| 2026-04-17 10:59 | 39.36090 | 20.89124 | 10087 ft | 308 kts | 352° |
| 2026-04-17 10:59 | 39.38168 | 20.88686 | 9988 ft | 297 kts | 352° |
| 2026-04-17 11:00 | 39.40166 | 20.88262 | 9873 ft | 286 kts | 352° |
| 2026-04-17 11:00 | 39.42138 | 20.87844 | 9429 ft | 288 kts | 352° |
| 2026-04-17 11:00 | 39.44123 | 20.87430 | 9026 ft | 289 kts | 355° |
| 2026-04-17 11:00 | 39.45990 | 20.87635 | 9006 ft | 262 kts | 25° |
| 2026-04-17 11:01 | 39.47314 | 20.89027 | 8846 ft | 242 kts | 58° |
| 2026-04-17 11:01 | 39.47875 | 20.91084 | 8187 ft | 245 kts | 76° |
| 2026-04-17 11:01 | 39.48343 | 20.93223 | 7606 ft | 246 kts | 70° |
| 2026-04-17 11:01 | 39.48972 | 20.95255 | 7227 ft | 240 kts | 64° |
| 2026-04-17 11:02 | 39.49784 | 20.97088 | 6845 ft | 232 kts | 46° |
| 2026-04-17 11:02 | 39.51172 | 20.98032 | 6454 ft | 228 kts | 8° |
| 2026-04-17 11:02 | 39.52718 | 20.97713 | 6052 ft | 228 kts | 336° |
| 2026-04-17 11:02 | 39.54023 | 20.96594 | 5672 ft | 222 kts | 326° |
| 2026-04-17 11:03 | 39.55233 | 20.95488 | 5419 ft | 203 kts | 328° |
| 2026-04-17 11:03 | 39.56322 | 20.94502 | 5167 ft | 184 kts | 328° |
| 2026-04-17 11:03 | 39.57348 | 20.93577 | 4953 ft | 176 kts | 327° |
| 2026-04-17 11:03 | 39.58350 | 20.92679 | 4759 ft | 175 kts | 327° |
| 2026-04-17 11:04 | 39.59354 | 20.91817 | 4326 ft | 170 kts | 330° |
| 2026-04-17 11:04 | 39.60337 | 20.91037 | 3821 ft | 163 kts | 332° |
| 2026-04-17 11:04 | 39.61301 | 20.90379 | 3622 ft | 151 kts | 335° |
| 2026-04-17 11:04 | 39.62188 | 20.89704 | 3449 ft | 146 kts | 330° |
| 2026-04-17 11:05 | 39.63005 | 20.88936 | 3293 ft | 144 kts | 328° |
| 2026-04-17 11:05 | 39.63833 | 20.88214 | 3115 ft | 143 kts | 328° |
| 2026-04-17 11:05 | 39.64598 | 20.87416 | 2973 ft | 145 kts | 322° |
| 2026-04-17 11:05 | 39.65380 | 20.86598 | 2804 ft | 144 kts | 330° |
| 2026-04-17 11:06 | 39.66183 | 20.85828 | 2637 ft | 143 kts | 325° |
| 2026-04-17 11:06 | 39.66958 | 20.85011 | 2389 ft | 145 kts | 326° |
| 2026-04-17 11:06 | 39.67780 | 20.84198 | 2027 ft | 149 kts | 323° |
| 2026-04-17 11:06 | 39.68582 | 20.83368 | 1742 ft | 147 kts | 326° |
| 2026-04-17 11:07 | 39.69359 | 20.82566 | 1569 ft | 132 kts | 325° |
| 2026-04-17 11:07 | 39.69887 | 20.82036 | 1567 ft | 54 kts | 321° |
| 2026-04-17 11:07 | 39.70169 | 20.81748 | 1565 ft | 51 kts | 322° |
| 2026-04-17 11:07 | 39.70399 | 20.81512 | 1564 ft | 26 kts | 322° |
| 2026-04-17 11:08 | 39.70509 | 20.81397 | 1566 ft | 14 kts | 318° |
| 2026-04-17 11:08 | 39.70544 | 20.81326 | 1565 ft | 7 kts | 335° |
| 2026-04-17 11:08 | 39.70538 | 20.81367 | 1565 ft | 10 kts | 139° |
| 2026-04-17 11:08 | 39.70443 | 20.81468 | 1565 ft | 22 kts | 141° |
| 2026-04-17 11:09 | 39.70313 | 20.81602 | 1564 ft | 25 kts | 142° |
| 2026-04-17 11:09 | 39.70169 | 20.81749 | 1564 ft | 27 kts | 142° |
| 2026-04-17 11:09 | 39.70038 | 20.81879 | 1567 ft | 16 kts | 142° |
| 2026-04-17 11:10 | 39.69850 | 20.81880 | 1565 ft | 17 kts | 211° |
| 2026-04-17 11:10 | 39.69748 | 20.81915 | 1565 ft | 16 kts | 141° |
| 2026-04-17 11:10 | 39.69660 | 20.82005 | 1565 ft | 15 kts | 140° |
| 2026-04-17 11:10 | 39.69591 | 20.82078 | 1565 ft | 10 kts | 142° |
| 2026-04-17 11:11 | 39.69527 | 20.82142 | 1565 ft | 13 kts | 142° |
| 2026-04-17 11:11 | 39.69508 | 20.82162 | 1565 ft | 2 kts | 141° |
| 2026-04-17 11:11 | 39.69492 | 20.82179 | 1565 ft | 0 kts | 141° |
| 2026-04-17 11:11 | 39.69491 | 20.82179 | 1565 ft | 0 kts | 141° |
| 2026-04-17 11:19 | 39.69490 | 20.82181 | 1565 ft | 3 kts | 141° |
| 2026-04-17 11:19 | 39.69451 | 20.82230 | 1565 ft | 10 kts | 123° |
| 2026-04-17 11:19 | 39.69434 | 20.82316 | 1565 ft | 10 kts | 123° |
| 2026-04-17 11:20 | 39.69381 | 20.82379 | 1565 ft | 6 kts | 141° |
| 2026-04-17 11:20 | 39.69341 | 20.82395 | 1565 ft | 6 kts | 203° |
| 2026-04-17 11:20 | 39.69327 | 20.82348 | 1565 ft | 2 kts | 273° |
| 2026-04-17 11:20 | 39.69330 | 20.82324 | 1565 ft | 0 kts | 275° |